Time;durP1;ratioP1;P1;durP2;ratioP2;P2;SDS_P1;SDS_P2;PMS_P1;PMS_P2;Temp;Humidity;BMP_temperature;BMP_pressure;BME280_temperature;BME280_humidity;BME280_pressure;Samples;Min_cycle;Max_cycle;Signal;HPM_P1;HPM_P2
2022/01/15 00:01:58;;;;;;;9.25;4.45;;;2.80;1.00;;;;;;5071906;28;20170;-74
2022/01/15 00:04:24;;;;;;;12.25;5.32;;;2.50;1.00;;;;;;5053082;28;20753;-74
2022/01/15 00:06:53;;;;;;;15.20;7.60;;;2.40;1.00;;;;;;5061093;28;20231;-73
2022/01/15 00:09:25;;;;;;;12.77;6.40;;;2.40;1.00;;;;;;5055177;28;20186;-74
2022/01/15 00:11:52;;;;;;;12.20;6.10;;;2.40;1.00;;;;;;5054389;28;20246;-74
2022/01/15 00:14:38;;;;;;;20.85;7.95;;;2.30;1.00;;;;;;5057603;28;20732;-73
2022/01/15 00:17:14;;;;;;;16.98;7.95;;;2.40;1.00;;;;;;5052197;28;20540;-73
2022/01/15 00:19:47;;;;;;;13.95;7.90;;;2.30;1.00;;;;;;5054235;28;20218;-73
2022/01/15 00:22:16;;;;;;;20.77;7.35;;;;;;;;;;5064438;28;20195;-74
2022/01/15 00:24:44;;;;;;;16.52;6.43;;;2.30;1.00;;;;;;5059416;28;20183;-74
2022/01/15 00:27:25;;;;;;;13.38;5.60;;;2.30;1.00;;;;;;5052417;28;20168;-73
2022/01/15 00:29:51;;;;;;;24.45;9.55;;;2.20;1.00;;;;;;5065696;28;20203;-74
2022/01/15 00:32:22;;;;;;;23.40;8.40;;;2.20;1.00;;;;;;5052533;28;20547;-74
2022/01/15 00:34:51;;;;;;;22.20;9.18;;;2.20;1.00;;;;;;5052342;28;20233;-73
2022/01/15 00:37:20;;;;;;;20.98;8.68;;;2.20;1.00;;;;;;5052360;28;20179;-76
2022/01/15 00:40:00;;;;;;;19.48;8.70;;;2.20;1.00;;;;;;5059024;28;20186;-76
2022/01/15 00:42:30;;;;;;;20.48;9.55;;;2.20;1.00;;;;;;5058935;28;20199;-76
2022/01/15 00:45:00;;;;;;;20.23;9.98;;;2.20;1.00;;;;;;5064289;28;20547;-77
2022/01/15 00:47:31;;;;;;;20.23;8.23;;;2.30;1.00;;;;;;5053551;28;20258;-76
2022/01/15 00:50:02;;;;;;;34.80;7.65;;;2.30;1.00;;;;;;5058619;28;20174;-76
2022/01/15 00:52:28;;;;;;;20.42;9.30;;;2.30;1.00;;;;;;5055289;28;20210;-76
2022/01/15 00:54:54;;;;;;;19.97;8.47;;;2.40;1.00;;;;;;5056241;28;20219;-76
2022/01/15 00:57:21;;;;;;;14.90;6.38;;;2.30;1.00;;;;;;5056533;28;20421;-76
2022/01/15 00:59:47;;;;;;;11.38;5.68;;;2.30;1.00;;;;;;5066616;28;20191;-76
2022/01/15 01:02:16;;;;;;;13.13;5.80;;;2.30;1.00;;;;;;5059501;28;22082;-76
2022/01/15 01:04:46;;;;;;;15.02;6.88;;;2.20;1.00;;;;;;5063696;28;20222;-76
2022/01/15 01:07:12;;;;;;;13.40;6.05;;;2.10;1.00;;;;;;5067906;28;20179;-76
2022/01/15 01:12:25;;;;;;;8.93;5.50;;;2.30;1.00;;;;;;5057304;28;20212;-76
2022/01/15 01:20:32;;;;;;;13.80;6.80;;;2.50;1.00;;;;;;5053453;28;20190;-76
2022/01/15 01:23:04;;;;;;;18.55;7.78;;;2.50;1.00;;;;;;5052043;28;20221;-76
2022/01/15 01:25:40;;;;;;;15.00;7.68;;;2.60;1.00;;;;;;5053004;28;20586;-76
2022/01/15 01:28:12;;;;;;;14.02;8.23;;;2.60;1.00;;;;;;5052929;28;20164;-76
2022/01/15 01:30:43;;;;;;;17.33;7.25;;;;;;;;;;5055265;28;20171;-76
2022/01/15 01:38:33;;;;;;;18.85;7.80;;;2.70;1.00;;;;;;5069016;28;20171;-76
2022/01/15 01:41:06;;;;;;;19.42;7.10;;;2.70;1.00;;;;;;5051410;28;20187;-76
2022/01/15 01:49:14;;;;;;;15.32;7.68;;;2.70;1.00;;;;;;5007317;28;20162;-76
2022/01/15 01:51:41;;;;;;;15.25;7.45;;;2.70;1.00;;;;;;4998773;28;20539;-77
2022/01/15 01:54:10;;;;;;;18.70;8.40;;;2.60;1.00;;;;;;5005139;28;20205;-76
2022/01/15 01:56:37;;;;;;;17.27;7.32;;;2.60;1.00;;;;;;4990522;28;20312;-77
2022/01/15 01:59:04;;;;;;;20.30;7.57;;;2.70;1.00;;;;;;5005373;28;20328;-75
2022/01/15 02:01:31;;;;;;;14.35;6.65;;;;;;;;;;4990968;28;20192;-74
2022/01/15 02:03:58;;;;;;;13.73;7.25;;;2.70;1.00;;;;;;4992725;28;20269;-74
2022/01/15 02:06:24;;;;;;;18.15;8.30;;;2.70;1.00;;;;;;5005388;28;20216;-74
2022/01/15 02:08:51;;;;;;;12.40;6.00;;;2.70;1.00;;;;;;5000256;28;20249;-73
2022/01/15 02:11:17;;;;;;;20.20;8.15;;;2.70;1.00;;;;;;4994793;28;20447;-74
2022/01/15 02:13:47;;;;;;;23.17;7.70;;;2.70;1.00;;;;;;4994928;28;20200;-73
2022/01/15 02:16:15;;;;;;;18.90;7.40;;;2.70;1.00;;;;;;4998063;28;20241;-74
2022/01/15 02:18:42;;;;;;;26.25;7.35;;;;;;;;;;4983011;28;20186;-73
2022/01/15 02:23:44;;;;;;;21.13;7.78;;;2.80;1.00;;;;;;5072868;28;20256;-74
2022/01/15 02:26:16;;;;;;;22.40;8.32;;;2.80;1.00;;;;;;5067543;28;20262;-74
2022/01/15 02:28:52;;;;;;;19.80;7.78;;;2.80;1.00;;;;;;5060605;28;20225;-74
2022/01/15 02:31:24;;;;;;;13.70;6.90;;;2.80;1.00;;;;;;5059212;28;20220;-74
2022/01/15 02:33:54;;;;;;;15.05;7.35;;;2.80;1.00;;;;;;5070890;28;20252;-73
2022/01/15 02:36:26;;;;;;;20.90;7.85;;;2.90;1.00;;;;;;5062593;28;20649;-74
2022/01/15 02:38:52;;;;;;;14.32;7.43;;;;;;;;;;5062925;28;20195;-74
2022/01/15 02:41:31;;;;;;;15.50;7.45;;;2.90;1.00;;;;;;5054597;28;20568;-74
2022/01/15 02:44:00;;;;;;;17.90;8.40;;;2.90;1.00;;;;;;5054554;28;20199;-74
2022/01/15 02:49:17;;;;;;;19.67;8.45;;;2.90;1.00;;;;;;5058139;28;20187;-74
2022/01/15 02:51:44;;;;;;;14.35;7.05;;;2.90;1.00;;;;;;5066596;28;20167;-74
2022/01/15 02:54:09;;;;;;;23.48;8.60;;;3.00;1.00;;;;;;5056308;28;20267;-74
2022/01/15 02:56:36;;;;;;;21.33;8.20;;;3.00;1.00;;;;;;5055503;28;20247;-74
2022/01/15 02:59:05;;;;;;;24.63;8.70;;;2.90;1.00;;;;;;5061579;28;20175;-73
2022/01/15 03:01:32;;;;;;;22.25;8.25;;;2.90;1.00;;;;;;5055890;28;20168;-73
2022/01/15 03:04:02;;;;;;;19.35;8.98;;;3.00;1.00;;;;;;5059108;28;20223;-74
2022/01/15 03:06:28;;;;;;;26.33;9.50;;;2.90;1.00;;;;;;5062001;28;20252;-74
2022/01/15 03:08:55;;;;;;;26.42;8.80;;;2.90;1.00;;;;;;5053940;28;20179;-74
2022/01/15 03:11:21;;;;;;;24.13;8.55;;;;;;;;;;5055145;28;20171;-74
2022/01/15 03:13:47;;;;;;;23.98;9.60;;;3.00;1.00;;;;;;5072237;28;20179;-74
2022/01/15 03:16:17;;;;;;;13.30;6.68;;;2.90;1.00;;;;;;5066126;28;20187;-74
2022/01/15 03:18:52;;;;;;;17.85;8.57;;;2.90;1.00;;;;;;5059317;28;20642;-74
2022/01/15 03:21:18;;;;;;;22.80;7.95;;;2.90;1.00;;;;;;5055222;28;20179;-74
2022/01/15 03:23:44;;;;;;;21.05;9.13;;;2.90;1.00;;;;;;5053803;28;20245;-74
2022/01/15 03:26:14;;;;;;;20.98;7.82;;;2.90;1.00;;;;;;5067866;28;20211;-74
2022/01/15 03:28:44;;;;;;;22.48;8.15;;;2.90;1.00;;;;;;5061673;28;20190;-74
2022/01/15 03:31:10;;;;;;;20.55;8.50;;;2.90;1.00;;;;;;5070210;28;20638;-74
2022/01/15 03:33:40;;;;;;;20.77;7.95;;;2.90;1.00;;;;;;5066081;28;20187;-73
2022/01/15 03:36:07;;;;;;;18.02;8.38;;;3.00;1.00;;;;;;5068543;28;20218;-73
2022/01/15 03:38:32;;;;;;;28.45;8.48;;;2.90;1.00;;;;;;5055058;28;20187;-74
2022/01/15 03:41:04;;;;;;;21.30;8.90;;;2.90;1.00;;;;;;5054667;28;20190;-74
2022/01/15 03:43:35;;;;;;;23.13;8.88;;;3.00;1.00;;;;;;5055046;28;20218;-73
2022/01/15 03:46:01;;;;;;;21.83;6.85;;;3.00;1.00;;;;;;5055247;28;21179;-76
2022/01/15 03:48:27;;;;;;;22.70;9.33;;;3.00;1.00;;;;;;5055278;28;20160;-74
2022/01/15 03:50:53;;;;;;;18.30;7.88;;;3.00;1.00;;;;;;5068329;28;20774;-74
2022/01/15 03:53:23;;;;;;;20.30;6.40;;;3.00;1.00;;;;;;5054650;28;20635;-74
2022/01/15 03:55:52;;;;;;;15.18;6.88;;;2.90;1.00;;;;;;5071927;28;20236;-74
2022/01/15 03:58:19;;;;;;;11.70;7.03;;;3.00;1.00;;;;;;5054550;28;20187;-74
2022/01/15 04:00:46;;;;;;;24.92;8.25;;;3.00;1.00;;;;;;5054604;28;20176;-73
2022/01/15 04:03:12;;;;;;;14.73;7.55;;;3.00;1.00;;;;;;5066242;28;20195;-74
2022/01/15 04:05:40;;;;;;;17.95;8.00;;;3.10;1.00;;;;;;5071610;28;20716;-76
2022/01/15 04:08:22;;;;;;;19.10;8.48;;;3.10;1.00;;;;;;5066550;28;20511;-76
2022/01/15 04:10:48;;;;;;;11.77;6.20;;;3.00;1.00;;;;;;5053504;28;20172;-76
2022/01/15 04:13:15;;;;;;;21.93;7.30;;;2.90;1.00;;;;;;5041703;28;20187;-76
2022/01/15 04:15:51;;;;;;;13.65;7.05;;;2.90;1.00;;;;;;5065419;28;20210;-76
2022/01/15 04:18:23;;;;;;;15.98;8.57;;;2.90;1.00;;;;;;5054737;28;20644;-77
2022/01/15 04:20:58;;;;;;;12.77;6.57;;;2.90;1.00;;;;;;5072305;28;20175;-76
2022/01/15 04:23:24;;;;;;;20.75;7.38;;;2.90;1.00;;;;;;5074654;28;20190;-76
2022/01/15 04:25:52;;;;;;;17.40;8.07;;;2.90;1.00;;;;;;5071112;28;20179;-76
2022/01/15 04:28:17;;;;;;;15.20;6.82;;;3.00;1.00;;;;;;5060799;28;20179;-76
2022/01/15 04:30:47;;;;;;;12.73;5.87;;;3.00;1.00;;;;;;5058121;28;20182;-76
2022/01/15 04:33:16;;;;;;;12.85;5.60;;;3.00;1.00;;;;;;5059823;28;20183;-76
2022/01/15 04:35:46;;;;;;;12.50;7.03;;;3.00;1.00;;;;;;5057825;28;20175;-76
2022/01/15 04:38:40;;;;;;;26.33;7.00;;;3.00;1.00;;;;;;5054233;28;20175;-76
2022/01/15 04:41:10;;;;;;;15.50;6.72;;;2.90;1.00;;;;;;5056119;28;20649;-76
2022/01/15 04:43:36;;;;;;;17.98;6.97;;;2.90;1.00;;;;;;5059262;28;20202;-76
2022/01/15 04:46:02;;;;;;;15.13;6.45;;;3.10;1.00;;;;;;5067749;28;20715;-76
2022/01/15 04:48:51;;;;;;;12.32;5.85;;;3.10;1.00;;;;;;5054095;28;20618;-76
2022/01/15 04:51:28;;;;;;;12.68;6.70;;;3.10;1.00;;;;;;5054161;28;20180;-76
2022/01/15 04:53:58;;;;;;;11.95;6.20;;;3.20;1.00;;;;;;5067858;28;20175;-76
2022/01/15 04:56:28;;;;;;;26.10;7.40;;;3.20;1.00;;;;;;5054004;28;20261;-76
2022/01/15 04:58:54;;;;;;;14.80;5.65;;;3.30;1.00;;;;;;5056037;28;20164;-76
2022/01/15 05:01:19;;;;;;;10.80;5.90;;;3.30;1.00;;;;;;5055763;28;20267;-76
2022/01/15 05:03:45;;;;;;;11.33;6.50;;;3.30;1.00;;;;;;5055564;28;20627;-76
2022/01/15 05:06:33;;;;;;;13.33;5.63;;;3.30;1.00;;;;;;5066439;28;20525;-77
2022/01/15 05:09:06;;;;;;;8.50;5.25;;;3.40;1.00;;;;;;5054050;28;20191;-76
2022/01/15 05:11:46;;;;;;;11.50;6.10;;;3.40;1.00;;;;;;5053689;28;20225;-76
2022/01/15 05:14:17;;;;;;;10.82;5.45;;;3.40;1.00;;;;;;5053832;28;20254;-76
2022/01/15 05:16:44;;;;;;;15.20;6.55;;;3.40;1.00;;;;;;5056668;28;20530;-78
2022/01/15 05:19:10;;;;;;;12.82;6.47;;;3.30;1.00;;;;;;5073728;28;20216;-76
2022/01/15 05:21:40;;;;;;;11.60;5.10;;;3.30;1.00;;;;;;5055202;28;20187;-73
2022/01/15 05:24:06;;;;;;;11.45;6.03;;;3.40;1.00;;;;;;5064013;28;20281;-74
2022/01/15 05:26:32;;;;;;;12.70;5.82;;;3.40;1.00;;;;;;5060296;28;20182;-74
2022/01/15 05:28:58;;;;;;;11.33;6.23;;;3.40;1.00;;;;;;5055007;28;20167;-74
2022/01/15 05:31:25;;;;;;;10.37;5.43;;;3.50;1.00;;;;;;5055099;28;20176;-74
2022/01/15 05:33:51;;;;;;;15.45;6.45;;;3.50;1.00;;;;;;5053154;28;20212;-74
2022/01/15 05:36:17;;;;;;;8.80;5.47;;;3.50;1.00;;;;;;5057865;28;20201;-74
2022/01/15 05:38:43;;;;;;;12.63;5.27;;;3.50;1.00;;;;;;5056202;28;20187;-74
2022/01/15 05:41:09;;;;;;;18.60;5.73;;;3.50;1.00;;;;;;5059366;28;20457;-73
2022/01/15 05:43:35;;;;;;;15.13;5.33;;;3.50;1.00;;;;;;5061390;28;20192;-74
2022/01/15 05:46:01;;;;;;;11.63;5.60;;;3.60;1.00;;;;;;5056242;28;20217;-74
2022/01/15 05:48:26;;;;;;;11.33;4.60;;;3.50;1.00;;;;;;5057299;28;20172;-74
2022/01/15 05:50:52;;;;;;;9.80;5.03;;;3.50;1.00;;;;;;5068782;28;20183;-73
2022/01/15 05:53:22;;;;;;;7.87;5.00;;;3.50;1.00;;;;;;5063448;28;20179;-74
2022/01/15 05:55:47;;;;;;;7.18;4.20;;;3.50;1.00;;;;;;5066860;28;20191;-74
2022/01/15 05:58:13;;;;;;;7.60;4.10;;;3.50;1.00;;;;;;5068024;28;20634;-74
2022/01/15 06:00:40;;;;;;;7.77;4.70;;;3.50;1.00;;;;;;5063519;28;20249;-74
2022/01/15 06:03:10;;;;;;;9.10;4.60;;;3.60;1.00;;;;;;5059608;28;20330;-74
2022/01/15 06:05:35;;;;;;;8.80;5.18;;;3.60;1.00;;;;;;5060878;28;20175;-74
2022/01/15 06:08:02;;;;;;;8.03;4.70;;;;;;;;;;5076218;28;20181;-74
2022/01/15 06:10:28;;;;;;;5.85;4.63;;;3.60;1.00;;;;;;5060643;28;20630;-74
2022/01/15 06:13:04;;;;;;;5.93;3.67;;;3.60;1.00;;;;;;5056784;28;20184;-74
2022/01/15 06:15:29;;;;;;;6.25;3.90;;;3.60;1.00;;;;;;5061544;28;20651;-74
2022/01/15 06:17:55;;;;;;;8.67;4.37;;;3.60;1.00;;;;;;5070521;28;20232;-75
2022/01/15 06:20:21;;;;;;;7.80;3.87;;;3.70;1.00;;;;;;5073947;28;20553;-76
2022/01/15 06:22:47;;;;;;;10.13;4.63;;;3.70;1.00;;;;;;5068926;28;20223;-76
2022/01/15 06:25:16;;;;;;;5.00;3.30;;;3.70;1.00;;;;;;5070423;28;20190;-76
2022/01/15 06:27:41;;;;;;;9.73;4.80;;;3.70;1.00;;;;;;5072065;28;20619;-76
2022/01/15 06:30:08;;;;;;;6.30;4.70;;;3.70;1.00;;;;;;5056859;28;20437;-76
2022/01/15 06:32:36;;;;;;;5.95;4.20;;;3.60;1.00;;;;;;5056792;28;20164;-76
2022/01/15 06:35:13;;;;;;;8.95;5.07;;;3.60;1.00;;;;;;5072594;28;20259;-75
2022/01/15 06:37:49;;;;;;;8.80;5.25;;;3.60;1.00;;;;;;5061385;28;20172;-76
2022/01/15 06:40:16;;;;;;;6.28;4.63;;;3.60;1.00;;;;;;5056852;28;20621;-76
2022/01/15 06:42:52;;;;;;;8.13;4.93;;;3.70;1.00;;;;;;5060199;28;20206;-76
2022/01/15 06:45:18;;;;;;;7.65;5.10;;;3.60;1.00;;;;;;5064895;28;20483;-76
2022/01/15 06:48:03;;;;;;;11.63;5.30;;;3.70;1.00;;;;;;5070060;28;20586;-77
2022/01/15 06:50:36;;;;;;;8.57;4.85;;;3.70;1.00;;;;;;5064285;28;20516;-74
2022/01/15 06:53:02;;;;;;;7.93;5.15;;;3.70;1.00;;;;;;5055636;28;20259;-74
2022/01/15 06:55:28;;;;;;;13.37;5.70;;;3.70;1.00;;;;;;5055698;28;20267;-74
2022/01/15 06:57:58;;;;;;;8.03;5.23;;;3.70;1.00;;;;;;5055679;28;20172;-74
2022/01/15 07:00:25;;;;;;;9.13;5.15;;;3.70;1.00;;;;;;5062553;28;20186;-73
2022/01/15 07:02:51;;;;;;;9.50;5.53;;;3.70;1.00;;;;;;5068503;28;20195;-74
2022/01/15 07:05:19;;;;;;;9.87;5.83;;;3.70;1.00;;;;;;5061745;28;20565;-75
2022/01/15 07:07:47;;;;;;;6.97;4.90;;;3.80;1.00;;;;;;5056329;28;20444;-76
2022/01/15 07:10:16;;;;;;;9.57;5.32;;;3.80;1.00;;;;;;5068377;28;20179;-77
2022/01/15 07:12:46;;;;;;;11.20;5.55;;;3.80;1.00;;;;;;5055525;28;20187;-76
2022/01/15 07:15:16;;;;;;;7.60;4.93;;;3.80;1.00;;;;;;5059556;28;20221;-76
2022/01/15 07:17:49;;;;;;;9.95;4.93;;;3.80;1.00;;;;;;5076420;28;20535;-76
2022/01/15 07:20:17;;;;;;;10.73;5.57;;;3.80;1.00;;;;;;5060189;28;20646;-76
2022/01/15 07:22:52;;;;;;;10.38;5.63;;;3.80;1.00;;;;;;5057084;28;20261;-76
2022/01/15 07:25:18;;;;;;;13.15;5.93;;;;;;;;;;5048423;28;20186;-75
2022/01/15 07:27:45;;;;;;;11.25;5.30;;;3.90;1.00;;;;;;5054140;28;20167;-75
2022/01/15 07:30:22;;;;;;;8.63;5.45;;;3.90;1.00;;;;;;5068231;28;20207;-76
2022/01/15 07:32:52;;;;;;;19.52;4.80;;;3.90;1.00;;;;;;5056160;28;20618;-75
2022/01/15 07:35:30;;;;;;;5.13;4.43;;;3.90;1.00;;;;;;5066426;28;20258;-77
2022/01/15 07:37:56;;;;;;;9.00;4.63;;;4.00;1.00;;;;;;5059801;28;20186;-74
2022/01/15 07:40:22;;;;;;;9.65;5.07;;;4.00;1.00;;;;;;5046119;28;20180;-77
2022/01/15 07:42:52;;;;;;;10.40;4.83;;;4.00;1.00;;;;;;5058786;28;20278;-73
2022/01/15 07:45:18;;;;;;;10.65;4.88;;;4.00;1.00;;;;;;5075284;28;20230;-74
2022/01/15 07:47:44;;;;;;;12.70;6.47;;;3.90;1.00;;;;;;5057852;28;20636;-73
2022/01/15 07:50:14;;;;;;;10.50;5.90;;;4.00;1.00;;;;;;5063409;28;20427;-74
2022/01/15 07:52:46;;;;;;;9.40;5.57;;;4.00;1.00;;;;;;5055211;28;20414;-76
2022/01/15 07:55:16;;;;;;;10.55;5.47;;;4.00;1.00;;;;;;5054568;28;20438;-74
2022/01/15 07:57:46;;;;;;;9.47;5.23;;;4.00;1.00;;;;;;5063896;28;20542;-75
2022/01/15 08:00:14;;;;;;;8.70;5.30;;;4.00;1.00;;;;;;5068238;28;20946;-74
2022/01/15 08:02:41;;;;;;;5.80;4.23;;;4.00;1.00;;;;;;5061412;28;20192;-73
2022/01/15 08:05:07;;;;;;;8.00;4.35;;;4.10;1.00;;;;;;5061185;28;20422;-75
2022/01/15 08:07:40;;;;;;;15.67;5.40;;;4.10;1.00;;;;;;5059987;28;20187;-75
2022/01/15 08:10:07;;;;;;;9.60;4.50;;;4.10;1.00;;;;;;5067114;28;20430;-73
2022/01/15 08:12:41;;;;;;;8.32;3.88;;;4.10;1.00;;;;;;5055502;28;20288;-75
2022/01/15 08:15:18;;;;;;;6.53;3.75;;;4.10;1.00;;;;;;5054681;28;20179;-78
2022/01/15 08:17:46;;;;;;;4.75;3.65;;;4.10;1.00;;;;;;5054632;28;20274;-75
2022/01/15 08:20:13;;;;;;;7.32;4.50;;;4.10;1.00;;;;;;5055685;28;20195;-74
2022/01/15 08:22:40;;;;;;;8.43;5.15;;;4.20;1.00;;;;;;5060578;28;20892;-77
2022/01/15 08:25:07;;;;;;;7.80;5.30;;;4.20;1.00;;;;;;5054581;28;20147;-77
2022/01/15 08:27:34;;;;;;;9.27;5.57;;;4.20;1.00;;;;;;5054115;28;20460;-76
2022/01/15 08:30:06;;;;;;;8.00;4.90;;;4.20;1.00;;;;;;5054639;28;20900;-76
2022/01/15 08:32:31;;;;;;;8.57;4.83;;;4.20;1.00;;;;;;5054249;28;20199;-77
2022/01/15 08:34:58;;;;;;;6.00;3.90;;;4.30;1.00;;;;;;5054280;28;20426;-76
2022/01/15 08:37:24;;;;;;;9.80;5.00;;;4.30;1.00;;;;;;5053835;28;20528;-73
2022/01/15 08:39:49;;;;;;;8.87;4.80;;;4.30;1.00;;;;;;5053712;28;20418;-73
2022/01/15 08:42:15;;;;;;;8.67;5.30;;;4.30;1.00;;;;;;5053748;28;20638;-73
2022/01/15 08:44:44;;;;;;;7.57;4.27;;;4.40;1.00;;;;;;5060047;28;20183;-74
2022/01/15 08:47:10;;;;;;;6.05;5.10;;;4.40;1.00;;;;;;5072279;28;20393;-73
2022/01/15 08:49:37;;;;;;;7.10;5.17;;;4.40;1.00;;;;;;5061733;28;20635;-73
2022/01/15 08:52:04;;;;;;;8.88;4.00;;;4.40;1.00;;;;;;5053713;28;20422;-74
2022/01/15 08:54:30;;;;;;;5.78;4.50;;;4.40;1.00;;;;;;5067800;28;20194;-74
2022/01/15 08:56:57;;;;;;;7.10;3.60;;;4.30;1.00;;;;;;5060536;28;20526;-74
2022/01/15 08:59:27;;;;;;;5.57;3.40;;;4.30;1.00;;;;;;5057063;28;20174;-74
2022/01/15 09:01:56;;;;;;;4.30;3.50;;;4.40;1.00;;;;;;5053589;28;20418;-74
2022/01/15 09:04:24;;;;;;;8.80;4.20;;;4.40;1.00;;;;;;5066250;28;20206;-73
2022/01/15 09:06:51;;;;;;;6.72;3.40;;;4.50;1.00;;;;;;5063191;28;20465;-76
2022/01/15 09:09:17;;;;;;;5.43;3.27;;;4.60;1.00;;;;;;5053414;28;20657;-77
2022/01/15 09:11:52;;;;;;;5.73;3.50;;;4.60;1.00;;;;;;5059039;28;20445;-76
2022/01/15 09:14:22;;;;;;;4.03;2.90;;;4.60;1.00;;;;;;5053901;28;20445;-77
2022/01/15 09:17:04;;;;;;;9.13;3.20;;;4.50;1.00;;;;;;5063829;28;20833;-77
2022/01/15 09:19:30;;;;;;;5.30;3.27;;;;;;;;;;5057911;28;20471;-76
2022/01/15 09:21:56;;;;;;;6.70;3.63;;;;;;;;;;5053847;28;20418;-74
2022/01/15 09:24:22;;;;;;;5.97;2.75;;;4.50;1.00;;;;;;5055890;28;20445;-74
2022/01/15 09:32:10;;;;;;;3.75;3.17;;;4.50;1.00;;;;;;5033690;28;20948;-73
2022/01/15 09:34:37;;;;;;;3.07;2.40;;;4.50;1.00;;;;;;5060804;28;20179;-73
2022/01/15 09:37:05;;;;;;;9.83;3.47;;;4.60;1.00;;;;;;5056630;28;20422;-73
2022/01/15 09:39:31;;;;;;;3.30;2.97;;;4.50;1.00;;;;;;5053284;28;20827;-73
2022/01/15 09:41:57;;;;;;;2.50;2.30;;;4.60;1.00;;;;;;5053195;28;20414;-73
2022/01/15 09:44:24;;;;;;;3.67;2.90;;;4.50;1.00;;;;;;5054005;28;20456;-73
2022/01/15 09:46:51;;;;;;;3.13;2.63;;;4.50;1.00;;;;;;5072925;28;20424;-73
2022/01/15 09:49:23;;;;;;;4.13;2.47;;;4.60;1.00;;;;;;5059214;28;20426;-74
2022/01/15 09:52:02;;;;;;;3.30;2.40;;;4.60;1.00;;;;;;5053035;28;20449;-74
2022/01/15 09:54:28;;;;;;;2.60;2.37;;;4.50;1.00;;;;;;5070945;28;20409;-76
2022/01/15 09:56:58;;;;;;;2.03;1.83;;;4.60;1.00;;;;;;5061891;28;20472;-77
2022/01/15 09:59:23;;;;;;;3.00;2.40;;;4.60;1.00;;;;;;5069319;28;20919;-77
2022/01/15 10:01:52;;;;;;;8.33;2.73;;;4.60;1.00;;;;;;5058162;28;20417;-77
2022/01/15 10:04:32;;;;;;;4.23;2.23;;;4.70;1.00;;;;;;5058733;28;20199;-77
2022/01/15 10:07:17;;;;;;;4.97;3.07;;;4.60;1.00;;;;;;5067998;28;20432;-77
2022/01/15 10:09:43;;;;;;;2.90;2.70;;;4.60;1.00;;;;;;5059481;28;20452;-74
2022/01/15 10:12:11;;;;;;;4.87;2.67;;;4.70;1.00;;;;;;5059993;28;20414;-74
2022/01/15 10:14:40;;;;;;;3.40;2.80;;;4.70;1.00;;;;;;5061538;28;20496;-74
2022/01/15 10:17:27;;;;;;;4.50;3.30;;;4.70;1.00;;;;;;5052616;28;20821;-74
2022/01/15 10:19:59;;;;;;;3.80;2.50;;;4.70;1.00;;;;;;5057585;28;20528;-74
2022/01/15 10:22:27;;;;;;;3.13;2.30;;;4.70;1.00;;;;;;5060681;28;20501;-74
2022/01/15 10:24:56;;;;;;;3.83;2.80;;;4.60;1.00;;;;;;5052821;28;20422;-74
2022/01/15 10:27:31;;;;;;;2.97;2.70;;;4.60;1.00;;;;;;5055116;28;20426;-74
2022/01/15 10:30:16;;;;;;;2.77;2.33;;;4.70;1.00;;;;;;5044445;28;20408;-74
2022/01/15 10:33:06;;;;;;;3.72;3.03;;;4.70;1.00;;;;;;5059968;28;20512;-74
2022/01/15 10:35:39;;;;;;;5.93;3.30;;;4.80;1.00;;;;;;5063225;28;20729;-74
2022/01/15 10:38:13;;;;;;;6.73;2.83;;;4.80;1.00;;;;;;5057303;28;20427;-74
2022/01/15 10:40:44;;;;;;;2.87;2.67;;;4.90;1.00;;;;;;5058265;28;20410;-74
2022/01/15 10:43:13;;;;;;;3.40;3.10;;;4.80;1.00;;;;;;5065804;28;20838;-74
2022/01/15 10:46:01;;;;;;;6.03;3.70;;;4.80;1.00;;;;;;5059094;28;20429;-74
2022/01/15 10:48:32;;;;;;;6.57;3.30;;;4.80;1.00;;;;;;5062087;28;20502;-74
2022/01/15 10:51:06;;;;;;;3.10;2.40;;;4.90;1.00;;;;;;5049735;28;20403;-74
2022/01/15 10:53:42;;;;;;;4.10;3.50;;;4.90;1.00;;;;;;5061855;28;20175;-74
2022/01/15 10:56:10;;;;;;;4.30;3.50;;;5.00;1.00;;;;;;5057303;28;20442;-78
2022/01/15 10:59:08;;;;;;;4.47;3.30;;;5.00;1.00;;;;;;5064912;28;20195;-74
2022/01/15 11:01:35;;;;;;;6.90;3.43;;;5.00;1.00;;;;;;5053661;28;20429;-74
2022/01/15 11:04:00;;;;;;;3.00;2.80;;;5.10;1.00;;;;;;5058138;28;20939;-74
2022/01/15 11:06:37;;;;;;;3.10;2.70;;;5.10;1.00;;;;;;5077475;28;20468;-74
2022/01/15 11:09:03;;;;;;;3.73;2.63;;;5.10;1.00;;;;;;5069917;28;20164;-73
2022/01/15 11:11:32;;;;;;;3.30;2.60;;;5.10;1.00;;;;;;5064611;28;20406;-73
2022/01/15 11:13:58;;;;;;;3.20;2.90;;;5.10;1.00;;;;;;5069386;28;20646;-74
2022/01/15 11:16:28;;;;;;;4.80;3.00;;;5.20;1.00;;;;;;5054079;28;20438;-74
2022/01/15 11:18:54;;;;;;;3.53;3.20;;;5.10;1.00;;;;;;5062032;28;20975;-75
2022/01/15 11:21:22;;;;;;;2.60;2.40;;;5.10;1.00;;;;;;5069234;28;20429;-74
2022/01/15 11:23:50;;;;;;;3.80;2.83;;;5.00;1.00;;;;;;5069122;28;20446;-74
2022/01/15 11:26:20;;;;;;;4.50;3.00;;;5.00;1.00;;;;;;5069432;28;20463;-74
2022/01/15 11:28:46;;;;;;;3.73;2.90;;;5.10;1.00;;;;;;5068085;28;20168;-74
2022/01/15 11:31:22;;;;;;;3.53;2.77;;;5.10;1.00;;;;;;5069200;28;20880;-74
2022/01/15 11:33:51;;;;;;;4.10;2.90;;;5.10;1.00;;;;;;5064392;28;20209;-74
2022/01/15 11:36:39;;;;;;;3.37;3.00;;;5.10;1.00;;;;;;5065811;28;20453;-74
2022/01/15 11:39:09;;;;;;;4.63;3.63;;;5.20;1.00;;;;;;5048152;28;20905;-74
2022/01/15 11:41:43;;;;;;;7.00;3.57;;;5.20;1.00;;;;;;5066775;28;20488;-74
2022/01/15 11:44:13;;;;;;;5.00;3.40;;;5.20;1.00;;;;;;5066636;28;20448;-74
2022/01/15 11:46:47;;;;;;;3.13;2.67;;;5.30;1.00;;;;;;5048862;28;20410;-74
2022/01/15 11:49:37;;;;;;;3.60;3.20;;;5.30;1.00;;;;;;5068408;28;20420;-74
2022/01/15 11:52:08;;;;;;;8.10;3.07;;;5.30;1.00;;;;;;5065964;28;20449;-74
2022/01/15 11:54:35;;;;;;;3.63;3.17;;;5.30;1.00;;;;;;5069472;28;20414;-74
2022/01/15 11:57:02;;;;;;;3.60;3.30;;;5.30;1.00;;;;;;5052460;28;20418;-74
2022/01/15 11:59:31;;;;;;;3.73;2.90;;;5.40;1.00;;;;;;5055005;28;20405;-74
2022/01/15 12:02:05;;;;;;;4.43;3.30;;;5.40;1.00;;;;;;5060656;28;20411;-74
2022/01/15 12:04:46;;;;;;;3.07;2.73;;;5.40;1.00;;;;;;5062372;28;20449;-74
2022/01/15 12:07:28;;;;;;;4.63;3.50;;;5.40;1.00;;;;;;5057799;28;20789;-75
2022/01/15 12:09:54;;;;;;;7.50;4.13;;;5.30;1.00;;;;;;5043537;28;20935;-76
2022/01/15 12:12:20;;;;;;;6.83;3.37;;;5.30;1.00;;;;;;5057438;28;20414;-75
2022/01/15 12:14:50;;;;;;;4.23;3.53;;;5.40;1.00;;;;;;5054911;28;20213;-77
2022/01/15 12:17:39;;;;;;;5.70;3.70;;;5.40;1.00;;;;;;5068304;28;20435;-76
2022/01/15 12:20:17;;;;;;;6.20;3.80;;;5.50;1.00;;;;;;5066867;28;20416;-77
2022/01/15 12:23:24;;;;;;;3.80;3.20;;;5.50;1.00;;;;;;5042119;28;20843;-79
2022/01/15 12:25:54;;;;;;;3.67;3.37;;;5.50;1.00;;;;;;5054540;28;20501;-75
2022/01/15 12:28:27;;;;;;;3.40;2.97;;;5.50;1.00;;;;;;5055982;28;20413;-75
2022/01/15 12:31:10;;;;;;;3.70;3.00;;;5.50;1.00;;;;;;5065501;28;20401;-74
2022/01/15 12:33:39;;;;;;;4.30;3.10;;;5.50;1.00;;;;;;5043732;28;20413;-75
2022/01/15 12:36:10;;;;;;;3.90;3.13;;;5.40;1.00;;;;;;5062355;28;20416;-75
2022/01/15 12:38:51;;;;;;;4.07;3.33;;;5.40;1.00;;;;;;5055048;28;20947;-75
2022/01/15 12:41:22;;;;;;;4.90;2.97;;;5.40;1.00;;;;;;5047689;28;20979;-75
2022/01/15 12:43:53;;;;;;;3.87;3.57;;;5.40;1.00;;;;;;5058227;28;20450;-74
2022/01/15 12:46:20;;;;;;;4.60;3.73;;;5.40;1.00;;;;;;5058947;28;20413;-75
2022/01/15 12:48:49;;;;;;;4.30;3.87;;;5.40;1.00;;;;;;5066000;28;20930;-75
2022/01/15 12:51:21;;;;;;;4.23;3.60;;;5.40;1.00;;;;;;5053680;28;20414;-75
2022/01/15 12:53:57;;;;;;;5.50;4.07;;;5.30;1.00;;;;;;5054337;28;20481;-75
2022/01/15 12:56:31;;;;;;;5.20;3.80;;;5.30;1.00;;;;;;5053326;28;20944;-75
2022/01/15 12:58:57;;;;;;;5.17;3.60;;;5.30;1.00;;;;;;5066596;28;20417;-74
2022/01/15 13:01:28;;;;;;;4.60;4.00;;;5.30;1.00;;;;;;5084051;28;20512;-74
2022/01/15 13:03:53;;;;;;;3.83;3.53;;;5.20;1.00;;;;;;5066808;28;20437;-74
2022/01/15 13:06:24;;;;;;;5.97;3.77;;;5.10;1.00;;;;;;5060566;28;21084;-74
2022/01/15 13:08:55;;;;;;;4.57;3.30;;;5.20;1.00;;;;;;5054750;28;20398;-75
2022/01/15 13:11:30;;;;;;;5.40;3.63;;;5.10;1.00;;;;;;5056778;28;20406;-76
2022/01/15 13:14:10;;;;;;;5.40;3.63;;;5.10;1.00;;;;;;5060252;28;20774;-77
2022/01/15 13:16:36;;;;;;;8.13;4.13;;;5.20;1.00;;;;;;5067410;28;20429;-79
2022/01/15 13:19:10;;;;;;;9.73;4.53;;;5.20;1.00;;;;;;5054685;28;20525;-77
2022/01/15 13:21:40;;;;;;;6.23;4.10;;;5.20;1.00;;;;;;5053333;28;20251;-77
2022/01/15 13:24:10;;;;;;;6.60;3.80;;;5.20;1.00;;;;;;5066755;28;20500;-77
2022/01/15 13:26:47;;;;;;;6.23;3.60;;;5.20;1.00;;;;;;5067267;28;20458;-77
2022/01/15 13:29:16;;;;;;;4.30;3.37;;;5.20;1.00;;;;;;5066007;28;20407;-77
2022/01/15 13:31:48;;;;;;;5.23;4.07;;;5.30;1.00;;;;;;5066794;28;20534;-77
2022/01/15 13:34:32;;;;;;;5.10;3.70;;;5.20;1.00;;;;;;5062184;28;20751;-77
2022/01/15 13:37:12;;;;;;;5.73;3.97;;;5.20;1.00;;;;;;5072515;28;20934;-77
2022/01/15 13:39:39;;;;;;;4.93;4.17;;;5.30;1.00;;;;;;5072352;28;20416;-77
2022/01/15 13:42:18;;;;;;;5.67;4.10;;;5.30;1.00;;;;;;5071327;28;20417;-77
2022/01/15 13:44:43;;;;;;;5.57;3.80;;;5.30;1.00;;;;;;5055434;28;20996;-78
2022/01/15 13:47:11;;;;;;;6.90;3.83;;;5.20;1.00;;;;;;5072570;28;20441;-77
2022/01/15 13:55:28;;;;;;;5.20;4.37;;;5.20;1.00;;;;;;5066372;28;20954;-78
2022/01/15 13:58:12;;;;;;;5.93;3.60;;;5.20;1.00;;;;;;5060896;28;20715;-78